createdAt,value
2018-12-17T00:02:43.855Z,32.78
2018-12-17T00:07:57.381Z,32.83
2018-12-17T00:13:15.905Z,32.94
2018-12-17T00:18:29.649Z,33.16
2018-12-17T00:23:50.686Z,33.14
2018-12-17T00:29:01.914Z,33.43
2018-12-17T00:34:12.826Z,33.46
2018-12-17T00:39:25.608Z,33.51
2018-12-17T00:44:36.577Z,33.49
2018-12-17T00:49:48.819Z,33.40
2018-12-17T00:55:01.644Z,33.27
2018-12-17T01:00:12.997Z,33.04
2018-12-17T01:05:26.532Z,33.21
2018-12-17T01:10:37.865Z,33.49
2018-12-17T01:15:48.887Z,33.29
2018-12-17T01:26:44.780Z,33.57
2018-12-17T01:31:59.987Z,33.34
2018-12-17T01:37:11.315Z,33.73
2018-12-17T01:42:25.195Z,33.41
2018-12-17T01:47:36.625Z,33.67
2018-12-17T01:52:50.994Z,34.04
2018-12-17T01:58:01.599Z,33.36
2018-12-17T02:03:16.573Z,33.97
2018-12-17T02:08:27.864Z,33.83
2018-12-17T02:14:06.302Z,33.77
2018-12-17T02:19:19.711Z,33.71
2018-12-17T02:24:33.708Z,33.94
2018-12-17T02:29:44.727Z,33.96
2018-12-17T02:34:56.220Z,34.06
2018-12-17T02:40:11.486Z,33.75
2018-12-17T02:45:25.868Z,34.35
2018-12-17T02:50:37.191Z,34.31
2018-12-17T02:55:49.006Z,34.26
2018-12-17T03:01:00.392Z,34.34
2018-12-17T03:06:10.667Z,34.46
2018-12-17T03:17:19.713Z,34.50
2018-12-17T03:22:34.695Z,34.55
2018-12-17T03:27:47.376Z,34.40
2018-12-17T03:32:58.577Z,34.33
2018-12-17T03:38:09.602Z,34.35
2018-12-17T03:43:21.733Z,34.38
2018-12-17T03:48:33.895Z,34.22
2018-12-17T03:56:53.303Z,33.87
2018-12-17T04:02:10.894Z,34.02
2018-12-17T04:07:24.309Z,33.88
2018-12-17T04:12:35.386Z,34.20
2018-12-17T04:17:47.154Z,34.10
2018-12-17T04:23:02.616Z,33.97
2018-12-17T04:28:13.540Z,34.48
2018-12-17T04:33:24.403Z,34.59
2018-12-17T04:38:35.853Z,34.45
2018-12-17T04:43:50.646Z,34.35
2018-12-17T04:49:01.752Z,34.62
2018-12-17T04:54:12.833Z,34.89
2018-12-17T04:59:24.775Z,34.86
2018-12-17T05:04:35.886Z,34.91
2018-12-17T05:09:46.820Z,34.83
2018-12-17T05:15:00.824Z,34.65
2018-12-17T05:20:12.334Z,34.80
2018-12-17T05:25:23.601Z,34.57
2018-12-17T05:30:34.679Z,34.50
2018-12-17T05:35:45.722Z,34.43
2018-12-17T05:40:57.329Z,34.30
2018-12-17T05:46:08.691Z,34.41
2018-12-17T05:51:33.035Z,34.33
2018-12-17T05:56:44.634Z,34.28
2018-12-17T06:07:48.333Z,34.44
2018-12-17T06:12:59.470Z,34.10
2018-12-17T06:18:11.829Z,34.38
2018-12-17T06:23:22.637Z,34.43
2018-12-17T06:28:36.548Z,34.14
2018-12-17T06:33:48.584Z,34.38
2018-12-17T06:38:59.658Z,34.33
2018-12-17T06:44:10.452Z,34.42
2018-12-17T06:47:34.594Z,34.29
2018-12-17T06:52:45.876Z,34.35
2018-12-17T06:57:57.717Z,34.39
2018-12-17T07:03:08.745Z,34.31
2018-12-17T07:08:20.203Z,34.31
2018-12-17T07:13:30.992Z,34.29
2018-12-17T07:18:42.423Z,34.19
2018-12-17T07:23:52.922Z,34.23
2018-12-17T07:29:04.323Z,34.33
2018-12-17T07:34:15.514Z,34.61
2018-12-17T07:39:28.329Z,34.27
2018-12-17T07:44:39.463Z,34.73
2018-12-17T07:49:51.637Z,34.77
2018-12-17T07:55:02.247Z,34.67
2018-12-17T08:00:13.780Z,35.02
2018-12-17T08:05:24.599Z,34.95
2018-12-17T08:10:35.851Z,34.81
2018-12-17T08:15:46.804Z,34.86
2018-12-17T08:21:13.835Z,35.07
2018-12-17T08:26:24.486Z,34.73
2018-12-17T08:31:35.710Z,34.74
2018-12-17T08:36:48.489Z,34.55
2018-12-17T08:42:00.765Z,34.55
2018-12-17T08:47:11.803Z,34.40
2018-12-17T08:52:22.613Z,34.72
2018-12-17T08:57:37.939Z,34.43
2018-12-17T09:02:47.669Z,34.66
2018-12-17T09:07:59.198Z,34.54
2018-12-17T09:13:09.869Z,34.43
2018-12-17T09:18:21.654Z,34.54
2018-12-17T09:25:05.807Z,34.97
2018-12-17T09:30:18.448Z,35.00
2018-12-17T09:35:29.620Z,34.71
2018-12-17T09:40:40.576Z,34.92
2018-12-17T09:45:51.577Z,35.36
2018-12-17T09:51:03.819Z,35.45
2018-12-17T09:56:14.683Z,35.30
2018-12-17T10:01:25.863Z,34.97
2018-12-17T10:06:37.001Z,35.13
2018-12-17T10:11:49.633Z,34.80
2018-12-17T10:17:00.646Z,35.24
2018-12-17T10:22:12.379Z,35.21
2018-12-17T10:27:23.401Z,35.56
2018-12-17T10:32:34.810Z,35.04
2018-12-17T10:37:45.584Z,35.42
2018-12-17T10:42:56.710Z,35.29
2018-12-17T10:48:08.369Z,35.37
2018-12-17T10:53:19.479Z,35.38
2018-12-17T10:58:30.814Z,35.58
2018-12-17T11:03:56.312Z,35.31
2018-12-17T11:09:09.738Z,35.91
2018-12-17T11:14:20.630Z,35.88
2018-12-17T11:19:31.677Z,35.62
2018-12-17T11:24:42.674Z,35.85
2018-12-17T11:29:53.584Z,36.01
2018-12-17T11:35:03.798Z,35.88
2018-12-17T11:40:14.795Z,35.72
2018-12-17T11:45:26.353Z,35.70
2018-12-17T11:50:36.750Z,35.25
2018-12-17T11:55:48.486Z,35.43
2018-12-17T11:58:19.344Z,35.59
2018-12-17T12:03:40.863Z,35.15
2018-12-17T12:08:52.297Z,35.56
2018-12-17T12:14:02.507Z,35.42
2018-12-17T12:19:13.892Z,35.29
2018-12-17T12:24:24.984Z,35.39
2018-12-17T12:29:35.795Z,35.39
2018-12-17T12:34:48.614Z,35.72
2018-12-17T12:39:59.857Z,35.23
2018-12-17T12:45:11.225Z,35.53
2018-12-17T12:50:22.622Z,35.87
2018-12-17T12:55:33.836Z,35.68
2018-12-17T13:00:46.028Z,35.33
2018-12-17T13:05:56.821Z,35.32
2018-12-17T13:11:08.054Z,35.27
2018-12-17T13:16:19.431Z,35.32
2018-12-17T13:21:32.664Z,35.83
2018-12-17T13:26:51.306Z,35.85
2018-12-17T13:32:06.698Z,35.99
2018-12-17T13:37:51.583Z,36.23
2018-12-17T13:43:02.860Z,36.41
2018-12-17T13:48:14.235Z,36.35
2018-12-17T13:53:30.205Z,36.25
2018-12-17T13:58:42.681Z,36.61
2018-12-17T14:03:53.981Z,36.55
2018-12-17T14:09:05.857Z,36.12
2018-12-17T14:14:23.411Z,35.77
2018-12-17T14:22:38.422Z,36.02
2018-12-17T14:27:49.825Z,35.86
2018-12-17T14:33:00.670Z,35.72
2018-12-17T14:38:19.994Z,35.52
2018-12-17T14:43:31.907Z,35.54
2018-12-17T14:48:43.460Z,35.19
2018-12-17T14:53:56.590Z,35.25
2018-12-17T14:59:07.905Z,35.79
2018-12-17T15:04:18.857Z,15.21
2018-12-17T15:09:30.575Z,9.80
2018-12-17T15:14:41.632Z,8.68
2018-12-17T15:17:52.574Z,7.82
2018-12-17T15:23:02.546Z,8.97
2018-12-17T15:28:13.825Z,10.72
2018-12-17T15:33:25.268Z,12.90
2018-12-17T15:38:35.594Z,14.46
2018-12-17T15:43:46.762Z,16.55
2018-12-17T15:48:58.888Z,18.44
2018-12-17T15:54:12.627Z,19.97
2018-12-17T15:59:24.305Z,20.89
2018-12-17T16:04:34.989Z,22.46
2018-12-17T16:09:46.653Z,23.54
2018-12-17T16:14:57.743Z,24.70
2018-12-17T16:20:11.039Z,25.19
2018-12-17T16:25:35.681Z,25.45
2018-12-17T16:30:47.560Z,25.94
2018-12-17T16:39:26.220Z,19.44
2018-12-17T16:47:51.616Z,16.54
2018-12-17T16:55:04.641Z,17.50
2018-12-17T17:00:19.341Z,18.69
2018-12-17T17:05:30.608Z,19.88
2018-12-17T17:19:06.679Z,23.65
2018-12-17T17:37:17.219Z,19.69
2018-12-17T17:42:33.514Z,21.37
2018-12-17T17:47:46.641Z,22.73
2018-12-17T17:52:52.996Z,21.57
2018-12-17T17:58:04.671Z,18.33
2018-12-17T18:03:14.952Z,16.98
2018-12-17T18:08:25.717Z,17.91
2018-12-17T18:13:36.741Z,19.97
2018-12-17T18:18:50.620Z,20.94
2018-12-17T18:24:01.661Z,22.49
2018-12-17T18:29:13.912Z,24.16
2018-12-17T18:34:25.009Z,25.13
2018-12-17T18:39:36.813Z,24.53
2018-12-17T18:44:48.296Z,22.20
2018-12-17T18:50:01.357Z,21.28
2018-12-17T18:55:12.779Z,20.23
2018-12-17T19:00:27.976Z,20.17
2018-12-17T19:05:38.522Z,19.88
2018-12-17T19:11:12.310Z,20.25
2018-12-17T19:16:23.774Z,21.09
2018-12-17T19:22:01.323Z,22.37
2018-12-17T19:27:12.836Z,23.60
2018-12-17T19:32:24.322Z,24.46
2018-12-17T19:37:37.501Z,24.92
2018-12-17T19:42:52.682Z,25.01
2018-12-17T19:48:03.652Z,25.15
2018-12-17T19:53:22.928Z,23.08
2018-12-17T19:58:34.591Z,16.50
2018-12-17T20:03:45.953Z,13.64
2018-12-17T20:08:56.717Z,14.90
